LAN114 SCEL-SCAT
Flight info
| Callsign | LAN114 |
|---|---|
| Flight time | 1h 1m |
| Altitude | 36000 |
| Route | DONTI1R DONTI UQ802 PUNAP PUNAP3D |
| Aircraft | A20N/M-SDE2E3FGHIJ1J2J3J5M1RWXYZ/EB1 |
Departure
| Time | 2026-05-08 15:51 |
|---|---|
| Airport | Comodoro Arturo Merino Benítez International Airport (SCEL) |
Arrival
| Time | 2026-05-08 16:53 |
|---|---|
| Airport | Desierto de Atacama Airport (SCAT) |
| Time | Latitude | Longitude | Altitude | Speed | Heading |
|---|---|---|---|---|---|
| 2026-05-08 15:20 | -33.39746 | -70.79828 | 1568 ft | 0 kts | 358° |
| 2026-05-08 15:41 | -33.39756 | -70.79827 | 1568 ft | 3 kts | 358° |
| 2026-05-08 15:41 | -33.39775 | -70.79826 | 1568 ft | 3 kts | 358° |
| 2026-05-08 15:42 | -33.39794 | -70.79825 | 1568 ft | 3 kts | 358° |
| 2026-05-08 15:42 | -33.39812 | -70.79822 | 1568 ft | 3 kts | 328° |
| 2026-05-08 15:42 | -33.39825 | -70.79805 | 1568 ft | 3 kts | 287° |
| 2026-05-08 15:42 | -33.39827 | -70.79790 | 1568 ft | 0 kts | 259° |
| 2026-05-08 15:45 | -33.39829 | -70.79799 | 1568 ft | 5 kts | 259° |
| 2026-05-08 15:45 | -33.39838 | -70.79855 | 1568 ft | 7 kts | 259° |
| 2026-05-08 15:45 | -33.39844 | -70.79921 | 1568 ft | 10 kts | 268° |
| 2026-05-08 15:46 | -33.39837 | -70.80012 | 1569 ft | 11 kts | 315° |
| 2026-05-08 15:46 | -33.39758 | -70.80030 | 1569 ft | 15 kts | 357° |
| 2026-05-08 15:46 | -33.39624 | -70.80038 | 1569 ft | 24 kts | 357° |
| 2026-05-08 15:46 | -33.39440 | -70.80049 | 1569 ft | 27 kts | 358° |
| 2026-05-08 15:47 | -33.39253 | -70.80059 | 1569 ft | 27 kts | 357° |
| 2026-05-08 15:47 | -33.39071 | -70.80070 | 1570 ft | 26 kts | 357° |
| 2026-05-08 15:47 | -33.38891 | -70.80080 | 1570 ft | 26 kts | 357° |
| 2026-05-08 15:47 | -33.38713 | -70.80090 | 1570 ft | 25 kts | 357° |
| 2026-05-08 15:48 | -33.38362 | -70.80109 | 1569 ft | 26 kts | 357° |
| 2026-05-08 15:48 | -33.38177 | -70.80119 | 1569 ft | 27 kts | 356° |
| 2026-05-08 15:48 | -33.37991 | -70.80129 | 1569 ft | 27 kts | 358° |
| 2026-05-08 15:49 | -33.37799 | -70.80138 | 1569 ft | 28 kts | 357° |
| 2026-05-08 15:49 | -33.37606 | -70.80149 | 1570 ft | 28 kts | 358° |
| 2026-05-08 15:49 | -33.37411 | -70.80160 | 1570 ft | 28 kts | 358° |
| 2026-05-08 15:49 | -33.37215 | -70.80169 | 1570 ft | 28 kts | 357° |
| 2026-05-08 15:50 | -33.37103 | -70.80281 | 1574 ft | 21 kts | 264° |
| 2026-05-08 15:50 | -33.37189 | -70.80374 | 1576 ft | 12 kts | 178° |
| 2026-05-08 15:50 | -33.37206 | -70.80373 | 1576 ft | 0 kts | 178° |
| 2026-05-08 15:50 | -33.37215 | -70.80373 | 1576 ft | 9 kts | 177° |
| 2026-05-08 15:51 | -33.37466 | -70.80360 | 1577 ft | 68 kts | 177° |
| 2026-05-08 15:51 | -33.38176 | -70.80321 | 1575 ft | 134 kts | 177° |
| 2026-05-08 15:51 | -33.39265 | -70.80259 | 1683 ft | 173 kts | 178° |
| 2026-05-08 15:51 | -33.40439 | -70.80207 | 2436 ft | 165 kts | 179° |
| 2026-05-08 15:52 | -33.41586 | -70.80150 | 3238 ft | 164 kts | 178° |
| 2026-05-08 15:52 | -33.42792 | -70.80083 | 3653 ft | 191 kts | 177° |
| 2026-05-08 15:52 | -33.44239 | -70.80080 | 4032 ft | 226 kts | 184° |
| 2026-05-08 15:52 | -33.45925 | -70.80299 | 4554 ft | 253 kts | 189° |
| 2026-05-08 15:53 | -33.47658 | -70.80834 | 5444 ft | 261 kts | 202° |
| 2026-05-08 15:53 | -33.49237 | -70.81903 | 6431 ft | 267 kts | 219° |
| 2026-05-08 15:53 | -33.50517 | -70.83531 | 7392 ft | 271 kts | 236° |
| 2026-05-08 15:53 | -33.51336 | -70.85586 | 8371 ft | 275 kts | 253° |
| 2026-05-08 15:54 | -33.51590 | -70.87868 | 9339 ft | 279 kts | 271° |
| 2026-05-08 15:54 | -33.51231 | -70.90179 | 10250 ft | 287 kts | 288° |
| 2026-05-08 15:54 | -33.50262 | -70.92334 | 10681 ft | 312 kts | 306° |
| 2026-05-08 15:54 | -33.48601 | -70.94170 | 11144 ft | 337 kts | 324° |
| 2026-05-08 15:55 | -33.46492 | -70.95532 | 11790 ft | 351 kts | 331° |
| 2026-05-08 15:55 | -33.41931 | -70.98052 | 13163 ft | 373 kts | 330° |
| 2026-05-08 15:55 | -33.39507 | -70.99340 | 13823 ft | 384 kts | 331° |
| 2026-05-08 15:56 | -33.37008 | -71.00616 | 14476 ft | 393 kts | 331° |
| 2026-05-08 15:56 | -33.34497 | -71.01893 | 15186 ft | 399 kts | 330° |
| 2026-05-08 15:56 | -33.31919 | -71.03206 | 15919 ft | 404 kts | 330° |
| 2026-05-08 15:56 | -33.29311 | -71.04539 | 16630 ft | 409 kts | 329° |
| 2026-05-08 15:57 | -33.26704 | -71.05873 | 17291 ft | 414 kts | 329° |
| 2026-05-08 15:57 | -33.24034 | -71.07240 | 18012 ft | 419 kts | 328° |
| 2026-05-08 15:57 | -33.21317 | -71.08626 | 18657 ft | 427 kts | 329° |
| 2026-05-08 15:57 | -33.18513 | -71.09860 | 19188 ft | 436 kts | 333° |
| 2026-05-08 15:58 | -33.15630 | -71.10998 | 19865 ft | 439 kts | 334° |
| 2026-05-08 15:58 | -33.12696 | -71.12134 | 20448 ft | 443 kts | 334° |
| 2026-05-08 15:58 | -33.09740 | -71.13277 | 21033 ft | 447 kts | 334° |
| 2026-05-08 15:58 | -33.06795 | -71.14419 | 21600 ft | 452 kts | 333° |
| 2026-05-08 15:59 | -33.03792 | -71.15584 | 22211 ft | 453 kts | 334° |
| 2026-05-08 15:59 | -33.00789 | -71.16746 | 22750 ft | 457 kts | 333° |
| 2026-05-08 15:59 | -32.97726 | -71.17933 | 23241 ft | 464 kts | 334° |
| 2026-05-08 15:59 | -32.94591 | -71.18827 | 23760 ft | 477 kts | 345° |
| 2026-05-08 16:00 | -32.91241 | -71.19244 | 24214 ft | 485 kts | 350° |
| 2026-05-08 16:00 | -32.87875 | -71.19410 | 24661 ft | 490 kts | 353° |
| 2026-05-08 16:00 | -32.84436 | -71.19452 | 25104 ft | 494 kts | 354° |
| 2026-05-08 16:00 | -32.80968 | -71.19448 | 25585 ft | 498 kts | 355° |
| 2026-05-08 16:01 | -32.77488 | -71.19441 | 26004 ft | 500 kts | 354° |
| 2026-05-08 16:01 | -32.74017 | -71.19451 | 26421 ft | 503 kts | 354° |
| 2026-05-08 16:01 | -32.70493 | -71.19482 | 26830 ft | 505 kts | 354° |
| 2026-05-08 16:01 | -32.67001 | -71.19529 | 27221 ft | 508 kts | 354° |
| 2026-05-08 16:02 | -32.63445 | -71.19589 | 27614 ft | 511 kts | 353° |
| 2026-05-08 16:02 | -32.59903 | -71.19654 | 27994 ft | 513 kts | 353° |
| 2026-05-08 16:02 | -32.56304 | -71.19722 | 28364 ft | 516 kts | 353° |
| 2026-05-08 16:02 | -32.52695 | -71.19791 | 28743 ft | 519 kts | 353° |
| 2026-05-08 16:03 | -32.49114 | -71.19859 | 29088 ft | 522 kts | 353° |
| 2026-05-08 16:03 | -32.45468 | -71.19927 | 29457 ft | 524 kts | 353° |
| 2026-05-08 16:03 | -32.41806 | -71.19994 | 29837 ft | 526 kts | 353° |
| 2026-05-08 16:03 | -32.39378 | -71.20038 | 30074 ft | 528 kts | 353° |
| 2026-05-08 16:04 | -32.35694 | -71.20105 | 30353 ft | 530 kts | 353° |
| 2026-05-08 16:04 | -32.30779 | -71.20194 | 30710 ft | 533 kts | 353° |
| 2026-05-08 16:04 | -32.28302 | -71.20238 | 30886 ft | 535 kts | 353° |
| 2026-05-08 16:04 | -32.24564 | -71.20306 | 31184 ft | 537 kts | 353° |
| 2026-05-08 16:05 | -32.20799 | -71.20374 | 31456 ft | 540 kts | 353° |
| 2026-05-08 16:05 | -32.17028 | -71.20442 | 31817 ft | 540 kts | 353° |
| 2026-05-08 16:05 | -32.13314 | -71.20508 | 32230 ft | 539 kts | 353° |
| 2026-05-08 16:05 | -32.09559 | -71.20573 | 32558 ft | 539 kts | 353° |
| 2026-05-08 16:06 | -32.05810 | -71.20640 | 32874 ft | 539 kts | 353° |
| 2026-05-08 16:06 | -32.02045 | -71.20708 | 33230 ft | 538 kts | 353° |
| 2026-05-08 16:06 | -31.98298 | -71.20775 | 33520 ft | 537 kts | 353° |
| 2026-05-08 16:06 | -31.94560 | -71.20840 | 33776 ft | 537 kts | 353° |
| 2026-05-08 16:07 | -31.90852 | -71.20906 | 33997 ft | 537 kts | 353° |
| 2026-05-08 16:07 | -31.87094 | -71.20974 | 34295 ft | 537 kts | 353° |
| 2026-05-08 16:07 | -31.83397 | -71.21040 | 34553 ft | 535 kts | 353° |
| 2026-05-08 16:07 | -31.79683 | -71.21106 | 34888 ft | 532 kts | 353° |
| 2026-05-08 16:08 | -31.75955 | -71.21092 | 35223 ft | 530 kts | 355° |
| 2026-05-08 16:08 | -31.72320 | -71.20932 | 35513 ft | 529 kts | 357° |
| 2026-05-08 16:08 | -31.68631 | -71.20697 | 35700 ft | 531 kts | 357° |
| 2026-05-08 16:08 | -31.64935 | -71.20434 | 35935 ft | 530 kts | 358° |
| 2026-05-08 16:09 | -31.61238 | -71.20169 | 36062 ft | 530 kts | 357° |
| 2026-05-08 16:09 | -31.57577 | -71.19914 | 36088 ft | 522 kts | 357° |
| 2026-05-08 16:09 | -31.50394 | -71.19448 | 36083 ft | 517 kts | 357° |
| 2026-05-08 16:10 | -31.43198 | -71.19012 | 36076 ft | 516 kts | 356° |
| 2026-05-08 16:10 | -31.36045 | -71.18587 | 36076 ft | 515 kts | 356° |
| 2026-05-08 16:11 | -31.28923 | -71.18161 | 36063 ft | 513 kts | 357° |
| 2026-05-08 16:11 | -31.21754 | -71.17730 | 36059 ft | 515 kts | 357° |
| 2026-05-08 16:12 | -31.14625 | -71.17303 | 36048 ft | 515 kts | 357° |
| 2026-05-08 16:12 | -31.07445 | -71.16872 | 36042 ft | 516 kts | 357° |
| 2026-05-08 16:13 | -31.00306 | -71.16444 | 36034 ft | 515 kts | 357° |
| 2026-05-08 16:13 | -30.93146 | -71.16014 | 36028 ft | 515 kts | 357° |
| 2026-05-08 16:14 | -30.86006 | -71.15579 | 36029 ft | 514 kts | 357° |
| 2026-05-08 16:14 | -30.78869 | -71.15145 | 36023 ft | 513 kts | 357° |
| 2026-05-08 16:15 | -30.71699 | -71.14714 | 36024 ft | 513 kts | 357° |
| 2026-05-08 16:15 | -30.64582 | -71.14289 | 36021 ft | 514 kts | 357° |
| 2026-05-08 16:16 | -30.57454 | -71.13864 | 36018 ft | 513 kts | 358° |
| 2026-05-08 16:16 | -30.50321 | -71.13438 | 36020 ft | 512 kts | 357° |
| 2026-05-08 16:17 | -30.43199 | -71.13014 | 36012 ft | 511 kts | 358° |
| 2026-05-08 16:17 | -30.36112 | -71.12597 | 36016 ft | 510 kts | 358° |
| 2026-05-08 16:18 | -30.29041 | -71.12186 | 36016 ft | 510 kts | 358° |
| 2026-05-08 16:18 | -30.21930 | -71.11711 | 36006 ft | 511 kts | 359° |
| 2026-05-08 16:19 | -30.14869 | -71.10972 | 36004 ft | 512 kts | 1° |
| 2026-05-08 16:19 | -30.07771 | -71.10158 | 35996 ft | 510 kts | 1° |
| 2026-05-08 16:20 | -30.00720 | -71.09373 | 35996 ft | 510 kts | 1° |
| 2026-05-08 16:20 | -29.93645 | -71.08607 | 35992 ft | 509 kts | 1° |
| 2026-05-08 16:21 | -29.86626 | -71.07856 | 35990 ft | 508 kts | 1° |
| 2026-05-08 16:21 | -29.79559 | -71.07101 | 35991 ft | 507 kts | 1° |
| 2026-05-08 16:22 | -29.72548 | -71.06352 | 36000 ft | 506 kts | 1° |
| 2026-05-08 16:22 | -29.65571 | -71.05608 | 36004 ft | 505 kts | 1° |
| 2026-05-08 16:23 | -29.58578 | -71.04863 | 36009 ft | 505 kts | 1° |
| 2026-05-08 16:23 | -29.51567 | -71.04113 | 36015 ft | 504 kts | 359° |
| 2026-05-08 16:24 | -29.44564 | -71.03354 | 36008 ft | 505 kts | 1° |
| 2026-05-08 16:24 | -29.37604 | -71.02344 | 36009 ft | 509 kts | 3° |
| 2026-05-08 16:25 | -29.30534 | -71.01203 | 36002 ft | 515 kts | 3° |
| 2026-05-08 16:25 | -29.23457 | -71.00184 | 35998 ft | 512 kts | 0° |
| 2026-05-08 16:26 | -29.16358 | -70.99502 | 35801 ft | 504 kts | 359° |
| 2026-05-08 16:26 | -29.12920 | -70.99203 | 35642 ft | 494 kts | 359° |
| 2026-05-08 16:26 | -29.09469 | -70.98906 | 34951 ft | 499 kts | 359° |
| 2026-05-08 16:27 | -29.05977 | -70.98605 | 34195 ft | 505 kts | 359° |
| 2026-05-08 16:27 | -29.02492 | -70.98297 | 33437 ft | 509 kts | 359° |
| 2026-05-08 16:27 | -28.98957 | -70.97972 | 32943 ft | 504 kts | 360° |
| 2026-05-08 16:27 | -28.95474 | -70.97645 | 32448 ft | 501 kts | 360° |
| 2026-05-08 16:28 | -28.92003 | -70.97316 | 31898 ft | 498 kts | 360° |
| 2026-05-08 16:28 | -28.88546 | -70.96990 | 31364 ft | 495 kts | 360° |
| 2026-05-08 16:28 | -28.85146 | -70.96670 | 30839 ft | 493 kts | 360° |
| 2026-05-08 16:28 | -28.81724 | -70.96349 | 30302 ft | 490 kts | 360° |
| 2026-05-08 16:29 | -28.78356 | -70.96035 | 29701 ft | 489 kts | 360° |
| 2026-05-08 16:29 | -28.74966 | -70.95719 | 29109 ft | 485 kts | 360° |
| 2026-05-08 16:29 | -28.71606 | -70.95406 | 28565 ft | 481 kts | 0° |
| 2026-05-08 16:29 | -28.68308 | -70.95098 | 28010 ft | 478 kts | 360° |
| 2026-05-08 16:30 | -28.64992 | -70.94789 | 27448 ft | 475 kts | 360° |
| 2026-05-08 16:30 | -28.61704 | -70.94484 | 26886 ft | 473 kts | 360° |
| 2026-05-08 16:30 | -28.58461 | -70.94182 | 26316 ft | 470 kts | 360° |
| 2026-05-08 16:30 | -28.55190 | -70.93878 | 25733 ft | 469 kts | 360° |
| 2026-05-08 16:31 | -28.51936 | -70.93577 | 25155 ft | 467 kts | 360° |
| 2026-05-08 16:31 | -28.48756 | -70.93270 | 24769 ft | 461 kts | 0° |
| 2026-05-08 16:31 | -28.45583 | -70.92941 | 24474 ft | 452 kts | 0° |
| 2026-05-08 16:31 | -28.42456 | -70.92616 | 23961 ft | 449 kts | 0° |
| 2026-05-08 16:32 | -28.39374 | -70.92295 | 23488 ft | 446 kts | 0° |
| 2026-05-08 16:32 | -28.36276 | -70.91975 | 22895 ft | 444 kts | 0° |
| 2026-05-08 16:32 | -28.33205 | -70.91657 | 22345 ft | 440 kts | 1° |
| 2026-05-08 16:32 | -28.30166 | -70.91341 | 21828 ft | 436 kts | 1° |
| 2026-05-08 16:33 | -28.27160 | -70.91018 | 21254 ft | 433 kts | 2° |
| 2026-05-08 16:33 | -28.24172 | -70.90613 | 20728 ft | 430 kts | 4° |
| 2026-05-08 16:33 | -28.21248 | -70.90189 | 20235 ft | 425 kts | 4° |
| 2026-05-08 16:33 | -28.18312 | -70.89760 | 19755 ft | 421 kts | 5° |
| 2026-05-08 16:34 | -28.15439 | -70.89342 | 19233 ft | 418 kts | 5° |
| 2026-05-08 16:34 | -28.12560 | -70.88924 | 18761 ft | 414 kts | 5° |
| 2026-05-08 16:34 | -28.09734 | -70.88516 | 18297 ft | 410 kts | 5° |
| 2026-05-08 16:34 | -28.06910 | -70.88108 | 17785 ft | 406 kts | 6° |
| 2026-05-08 16:35 | -28.04126 | -70.87706 | 17331 ft | 400 kts | 6° |
| 2026-05-08 16:35 | -28.01374 | -70.87309 | 16847 ft | 394 kts | 6° |
| 2026-05-08 16:35 | -27.98696 | -70.86923 | 16377 ft | 389 kts | 6° |
| 2026-05-08 16:35 | -27.96015 | -70.86537 | 15929 ft | 383 kts | 6° |
| 2026-05-08 16:36 | -27.93402 | -70.86161 | 15473 ft | 379 kts | 6° |
| 2026-05-08 16:36 | -27.90791 | -70.85785 | 15009 ft | 373 kts | 6° |
| 2026-05-08 16:36 | -27.88245 | -70.85420 | 14535 ft | 369 kts | 6° |
| 2026-05-08 16:36 | -27.85707 | -70.85056 | 14105 ft | 364 kts | 6° |
| 2026-05-08 16:37 | -27.83200 | -70.84697 | 13655 ft | 359 kts | 7° |
| 2026-05-08 16:37 | -27.80757 | -70.84347 | 13125 ft | 355 kts | 7° |
| 2026-05-08 16:37 | -27.78291 | -70.83993 | 12578 ft | 353 kts | 7° |
| 2026-05-08 16:37 | -27.75918 | -70.83653 | 12373 ft | 340 kts | 6° |
| 2026-05-08 16:38 | -27.73607 | -70.83322 | 12197 ft | 326 kts | 6° |
| 2026-05-08 16:38 | -27.71421 | -70.83010 | 12015 ft | 314 kts | 6° |
| 2026-05-08 16:38 | -27.69272 | -70.82702 | 11522 ft | 308 kts | 6° |
| 2026-05-08 16:38 | -27.67142 | -70.82399 | 10923 ft | 305 kts | 6° |
| 2026-05-08 16:39 | -27.65056 | -70.82101 | 10375 ft | 300 kts | 7° |
| 2026-05-08 16:39 | -27.63028 | -70.81812 | 9974 ft | 290 kts | 7° |
| 2026-05-08 16:39 | -27.61077 | -70.81533 | 9749 ft | 273 kts | 7° |
| 2026-05-08 16:39 | -27.59265 | -70.81274 | 9580 ft | 257 kts | 7° |
| 2026-05-08 16:40 | -27.57538 | -70.81028 | 9358 ft | 244 kts | 7° |
| 2026-05-08 16:40 | -27.55914 | -70.80758 | 9194 ft | 226 kts | 12° |
| 2026-05-08 16:40 | -27.54450 | -70.80226 | 8842 ft | 219 kts | 21° |
| 2026-05-08 16:40 | -27.53039 | -70.79548 | 8245 ft | 223 kts | 23° |
| 2026-05-08 16:41 | -27.51611 | -70.78825 | 7634 ft | 227 kts | 24° |
| 2026-05-08 16:41 | -27.50178 | -70.78096 | 7129 ft | 226 kts | 24° |
| 2026-05-08 16:41 | -27.48782 | -70.77389 | 6954 ft | 210 kts | 24° |
| 2026-05-08 16:42 | -27.46362 | -70.76133 | 6825 ft | 179 kts | 30° |
| 2026-05-08 16:42 | -27.45424 | -70.75194 | 6416 ft | 187 kts | 57° |
| 2026-05-08 16:42 | -27.45069 | -70.73763 | 5905 ft | 198 kts | 94° |
| 2026-05-08 16:42 | -27.45564 | -70.72331 | 5516 ft | 202 kts | 130° |
| 2026-05-08 16:43 | -27.46724 | -70.71510 | 5182 ft | 201 kts | 167° |
| 2026-05-08 16:43 | -27.48103 | -70.71613 | 4868 ft | 199 kts | 199° |
| 2026-05-08 16:43 | -27.49372 | -70.72233 | 4570 ft | 197 kts | 206° |
| 2026-05-08 16:43 | -27.50586 | -70.72929 | 4261 ft | 196 kts | 207° |
| 2026-05-08 16:44 | -27.51802 | -70.73631 | 3959 ft | 195 kts | 207° |
| 2026-05-08 16:44 | -27.52999 | -70.74311 | 3664 ft | 194 kts | 206° |
| 2026-05-08 16:44 | -27.54212 | -70.74992 | 3379 ft | 192 kts | 206° |
| 2026-05-08 16:44 | -27.55309 | -70.75812 | 3099 ft | 190 kts | 224° |
| 2026-05-08 16:45 | -27.56014 | -70.77061 | 3009 ft | 190 kts | 253° |
| 2026-05-08 16:45 | -27.55993 | -70.78518 | 3006 ft | 190 kts | 291° |
| 2026-05-08 16:45 | -27.55157 | -70.79635 | 3003 ft | 189 kts | 332° |
| 2026-05-08 16:45 | -27.53893 | -70.79862 | 3002 ft | 189 kts | 11° |
| 2026-05-08 16:46 | -27.52636 | -70.79392 | 3008 ft | 191 kts | 23° |
| 2026-05-08 16:46 | -27.51435 | -70.78775 | 3004 ft | 191 kts | 25° |
| 2026-05-08 16:46 | -27.50218 | -70.78134 | 3002 ft | 191 kts | 25° |
| 2026-05-08 16:46 | -27.49015 | -70.77512 | 3004 ft | 191 kts | 24° |
| 2026-05-08 16:47 | -27.47810 | -70.76899 | 2999 ft | 191 kts | 24° |
| 2026-05-08 16:47 | -27.46588 | -70.76274 | 3000 ft | 191 kts | 27° |
| 2026-05-08 16:47 | -27.45538 | -70.75385 | 3003 ft | 191 kts | 46° |
| 2026-05-08 16:47 | -27.44485 | -70.74522 | 2973 ft | 180 kts | 16° |
| 2026-05-08 16:48 | -27.43323 | -70.74496 | 3014 ft | 160 kts | 348° |
| 2026-05-08 16:48 | -27.42274 | -70.74821 | 2983 ft | 158 kts | 341° |
| 2026-05-08 16:48 | -27.41226 | -70.75227 | 2926 ft | 159 kts | 340° |
| 2026-05-08 16:48 | -27.40189 | -70.75643 | 2850 ft | 159 kts | 340° |
| 2026-05-08 16:49 | -27.39144 | -70.76065 | 2775 ft | 158 kts | 340° |
| 2026-05-08 16:49 | -27.38125 | -70.76478 | 2700 ft | 154 kts | 340° |
| 2026-05-08 16:49 | -27.37103 | -70.76839 | 2620 ft | 152 kts | 347° |
| 2026-05-08 16:49 | -27.36071 | -70.77072 | 2516 ft | 152 kts | 352° |
| 2026-05-08 16:50 | -27.35374 | -70.77158 | 2407 ft | 150 kts | 355° |
| 2026-05-08 16:50 | -27.34347 | -70.77201 | 2173 ft | 143 kts | 358° |
| 2026-05-08 16:50 | -27.33377 | -70.77239 | 2014 ft | 140 kts | 354° |
| 2026-05-08 16:50 | -27.32093 | -70.77393 | 1791 ft | 136 kts | 354° |
| 2026-05-08 16:51 | -27.31469 | -70.77448 | 1671 ft | 134 kts | 353° |
| 2026-05-08 16:51 | -27.30541 | -70.77533 | 1494 ft | 133 kts | 354° |
| 2026-05-08 16:51 | -27.29623 | -70.77611 | 1301 ft | 133 kts | 354° |
| 2026-05-08 16:51 | -27.28703 | -70.77693 | 1077 ft | 132 kts | 353° |
| 2026-05-08 16:52 | -27.27793 | -70.77775 | 876 ft | 131 kts | 353° |
| 2026-05-08 16:52 | -27.26894 | -70.77854 | 683 ft | 128 kts | 353° |
| 2026-05-08 16:52 | -27.26136 | -70.77924 | 656 ft | 85 kts | 355° |
| 2026-05-08 16:52 | -27.25625 | -70.77971 | 646 ft | 69 kts | 356° |
| 2026-05-08 16:53 | -27.25165 | -70.77966 | 635 ft | 1 kts | 303° |
| 2026-05-08 16:53 | -27.25195 | -70.78008 | 635 ft | 12 kts | 180° |
| 2026-05-08 16:53 | -27.25289 | -70.78000 | 639 ft | 19 kts | 175° |
| 2026-05-08 16:54 | -27.25473 | -70.77983 | 645 ft | 33 kts | 175° |
| 2026-05-08 16:54 | -27.25731 | -70.77962 | 648 ft | 42 kts | 176° |
| 2026-05-08 16:54 | -27.26006 | -70.77935 | 654 ft | 24 kts | 173° |
| 2026-05-08 16:54 | -27.26068 | -70.77807 | 657 ft | 21 kts | 83° |
| 2026-05-08 16:55 | -27.26073 | -70.77652 | 658 ft | 18 kts | 136° |
| 2026-05-08 16:55 | -27.26183 | -70.77627 | 658 ft | 15 kts | 174° |
| 2026-05-08 16:55 | -27.26283 | -70.77618 | 661 ft | 13 kts | 176° |
| 2026-05-08 16:55 | -27.26364 | -70.77597 | 663 ft | 10 kts | 120° |
| 2026-05-08 16:56 | -27.26362 | -70.77528 | 663 ft | 7 kts | 88° |
| 2026-05-08 16:56 | -27.26361 | -70.77515 | 663 ft | 0 kts | 87° |